Wetterdaten: Woche 31.08.09 - 06.09.09 (KW36)
Datum Zeit Temperatur Luftfeuchte Luftdruck Niederschlag Windrichtung Wind
31.08.2009 00:00 11,0 C 79 % 1020,3 hPa 0,0 l/m N 0,7 km/h (0 Bft)
31.08.2009 01:00 10,2 C 83 % 1020,4 hPa 0,0 l/m N 0,0 km/h (0 Bft)
31.08.2009 02:00 9,5 C 85 % 1020,1 hPa 0,0 l/m N 0,1 km/h (0 Bft)
31.08.2009 03:00 8,9 C 87 % 1019,9 hPa 0,0 l/m N 0,3 km/h (0 Bft)
31.08.2009 04:00 8,7 C 87 % 1019,9 hPa 0,0 l/m N 2,0 km/h (1 Bft)
31.08.2009 05:00 8,1 C 90 % 1019,6 hPa 0,0 l/m N 0,1 km/h (0 Bft)
31.08.2009 06:00 7,6 C 91 % 1019,5 hPa 0,0 l/m N 0,1 km/h (0 Bft)
31.08.2009 07:00 8,5 C 90 % 1019,6 hPa 0,0 l/m N 0,7 km/h (0 Bft)
31.08.2009 08:00 11,6 C 79 % 1019,6 hPa 0,0 l/m N 5,1 km/h (1 Bft)
31.08.2009 09:00 14,5 C 73 % 1019,3 hPa 0,0 l/m N-NO 4,5 km/h (1 Bft)
31.08.2009 10:00 17,3 C 63 % 1019,1 hPa 0,0 l/m O-NO 6,4 km/h (2 Bft)
31.08.2009 11:00 20,1 C 55 % 1018,7 hPa 0,0 l/m NO 9,1 km/h (2 Bft)
31.08.2009 12:00 22,4 C 45 % 1017,9 hPa 0,0 l/m NO 11,8 km/h (2 Bft)
31.08.2009 13:00 23,7 C 40 % 1017,4 hPa 0,0 l/m SO 11,4 km/h (2 Bft)
31.08.2009 14:00 24,5 C 38 % 1016,7 hPa 0,0 l/m O-SO 10,5 km/h (2 Bft)
31.08.2009 15:00 25,2 C 37 % 1016,2 hPa 0,0 l/m O-SO 9,9 km/h (2 Bft)
31.08.2009 16:00 25,7 C 38 % 1015,5 hPa 0,0 l/m O-NO 8,6 km/h (2 Bft)
31.08.2009 17:00 25,6 C 39 % 1015,0 hPa 0,0 l/m O-SO 10,1 km/h (2 Bft)
31.08.2009 18:00 25,1 C 42 % 1014,5 hPa 0,0 l/m O-SO 8,6 km/h (2 Bft)
31.08.2009 19:00 22,8 C 53 % 1014,2 hPa 0,0 l/m O-SO 4,8 km/h (1 Bft)
31.08.2009 20:00 18,6 C 71 % 1014,4 hPa 0,0 l/m N 1,3 km/h (1 Bft)
31.08.2009 21:00 17,0 C 77 % 1014,7 hPa 0,0 l/m N 1,5 km/h (1 Bft)
31.08.2009 22:00 16,0 C 81 % 1014,6 hPa 0,0 l/m N 0,1 km/h (0 Bft)
31.08.2009 23:00 15,0 C 86 % 1014,7 hPa 0,0 l/m N 0,0 km/h (0 Bft)
01.09.2009 00:00 14,2 C 89 % 1014,9 hPa 0,0 l/m N 0,0 km/h (0 Bft)
01.09.2009 01:00 13,5 C 91 % 1014,8 hPa 0,0 l/m N 0,0 km/h (0 Bft)
01.09.2009 02:00 13,1 C 92 % 1014,8 hPa 0,0 l/m N 0,0 km/h (0 Bft)
01.09.2009 03:00 12,7 C 94 % 1014,6 hPa 0,0 l/m N 0,0 km/h (0 Bft)
01.09.2009 04:00 12,5 C 94 % 1014,6 hPa 0,0 l/m N 0,1 km/h (0 Bft)
01.09.2009 05:00 12,3 C 95 % 1014,6 hPa 0,0 l/m N 0,0 km/h (0 Bft)
01.09.2009 06:00 11,9 C 95 % 1014,7 hPa 0,0 l/m N 0,0 km/h (0 Bft)
01.09.2009 07:00 12,3 C 95 % 1014,9 hPa 0,0 l/m N 0,0 km/h (0 Bft)
01.09.2009 08:00 14,8 C 88 % 1014,8 hPa 0,0 l/m N 0,1 km/h (0 Bft)
01.09.2009 09:00 19,4 C 73 % 1014,9 hPa 0,0 l/m S-SW 2,8 km/h (1 Bft)
01.09.2009 10:00 22,4 C 65 % 1014,8 hPa 0,0 l/m S-SW 10,1 km/h (2 Bft)
01.09.2009 11:00 24,8 C 58 % 1014,3 hPa 0,0 l/m SW 13,7 km/h (3 Bft)
01.09.2009 12:00 26,8 C 52 % 1013,4 hPa 0,0 l/m S 14,6 km/h (3 Bft)
01.09.2009 13:00 28,4 C 43 % 1012,5 hPa 0,0 l/m SW 16,2 km/h (3 Bft)
01.09.2009 14:00 29,4 C 35 % 1011,8 hPa 0,0 l/m W-SW 17,4 km/h (3 Bft)
01.09.2009 15:00 29,8 C 33 % 1011,2 hPa 0,0 l/m W-SW 17,7 km/h (3 Bft)
01.09.2009 16:00 29,9 C 30 % 1010,7 hPa 0,0 l/m W-SW 16,6 km/h (3 Bft)
01.09.2009 17:00 29,4 C 32 % 1010,7 hPa 0,0 l/m W 10,5 km/h (2 Bft)
01.09.2009 18:00 27,7 C 37 % 1010,5 hPa 0,0 l/m W-SW 10,6 km/h (2 Bft)
01.09.2009 19:00 23,4 C 55 % 1010,9 hPa 0,0 l/m W 6,3 km/h (2 Bft)
01.09.2009 20:00 23,4 C 60 % 1012,6 hPa 0,0 l/m N 22,8 km/h (4 Bft)
01.09.2009 21:00 22,4 C 66 % 1013,9 hPa 0,0 l/m N 19,4 km/h (3 Bft)
01.09.2009 22:00 20,2 C 77 % 1015,0 hPa 2,8 l/m W 18,1 km/h (3 Bft)
01.09.2009 23:00 17,8 C 89 % 1014,4 hPa 0,2 l/m W-SW 8,2 km/h (2 Bft)
02.09.2009 00:00 17,3 C 88 % 1015,8 hPa 0,0 l/m SW 13,6 km/h (3 Bft)
02.09.2009 01:00 17,0 C 91 % 1015,8 hPa 0,0 l/m SW 11,1 km/h (2 Bft)
02.09.2009 02:00 16,8 C 89 % 1015,7 hPa 0,0 l/m W-SW 14,8 km/h (3 Bft)
02.09.2009 03:00 16,6 C 90 % 1015,5 hPa 0,0 l/m W-SW 8,2 km/h (2 Bft)
02.09.2009 04:00 16,6 C 91 % 1015,1 hPa 0,0 l/m N 3,1 km/h (1 Bft)
02.09.2009 05:00 16,3 C 92 % 1014,8 hPa 0,0 l/m SO 2,9 km/h (1 Bft)
02.09.2009 06:00 16,1 C 93 % 1014,6 hPa 0,0 l/m SO 3,3 km/h (1 Bft)
02.09.2009 07:00 16,0 C 94 % 1014,7 hPa 0,0 l/m SO 5,5 km/h (1 Bft)
02.09.2009 08:00 16,8 C 93 % 1014,9 hPa 0,0 l/m SO 2,5 km/h (1 Bft)
02.09.2009 09:00 18,0 C 89 % 1015,0 hPa 0,0 l/m O-SO 4,9 km/h (1 Bft)
02.09.2009 10:00 20,1 C 82 % 1014,8 hPa 0,0 l/m NW 6,1 km/h (2 Bft)
02.09.2009 11:00 20,4 C 78 % 1014,6 hPa 0,0 l/m O-SO 5,5 km/h (1 Bft)
02.09.2009 12:00 21,4 C 72 % 1014,0 hPa 0,0 l/m O 6,4 km/h (2 Bft)
02.09.2009 13:00 21,4 C 73 % 1013,4 hPa 0,0 l/m W 3,5 km/h (1 Bft)
02.09.2009 14:00 22,3 C 71 % 1012,7 hPa 0,0 l/m SO 5,2 km/h (1 Bft)
02.09.2009 15:00 23,0 C 66 % 1011,9 hPa 0,0 l/m SW 6,5 km/h (2 Bft)
02.09.2009 16:00 21,7 C 76 % 1011,8 hPa 2,2 l/m W 6,3 km/h (2 Bft)
02.09.2009 17:00 19,3 C 90 % 1011,7 hPa 0,0 l/m SW 7,4 km/h (2 Bft)
02.09.2009 18:00 19,0 C 90 % 1011,1 hPa 0,0 l/m W-SW 13,1 km/h (3 Bft)
02.09.2009 19:00 18,5 C 88 % 1010,7 hPa 0,0 l/m W-SW 14,9 km/h (3 Bft)
02.09.2009 20:00 17,8 C 91 % 1010,8 hPa 0,0 l/m S-SW 12,6 km/h (3 Bft)
02.09.2009 21:00 17,1 C 88 % 1010,9 hPa 0,0 l/m S-SO 5,6 km/h (1 Bft)
02.09.2009 22:00 16,6 C 89 % 1010,4 hPa 0,0 l/m S 4,4 km/h (1 Bft)
02.09.2009 23:00 16,2 C 90 % 1010,0 hPa 0,0 l/m S 3,9 km/h (1 Bft)
03.09.2009 00:00 15,8 C 91 % 1009,3 hPa 0,0 l/m S 4,1 km/h (1 Bft)
03.09.2009 01:00 15,7 C 92 % 1008,5 hPa 0,0 l/m S-SW 5,9 km/h (2 Bft)
03.09.2009 02:00 15,4 C 93 % 1007,7 hPa 2,4 l/m S-SO 4,0 km/h (1 Bft)
03.09.2009 03:00 15,0 C 94 % 1006,8 hPa 0,0 l/m S-SW 3,6 km/h (1 Bft)
03.09.2009 04:00 15,0 C 97 % 1007,4 hPa 5,8 l/m SW 15,2 km/h (3 Bft)
03.09.2009 05:00 15,5 C 97 % 1006,8 hPa 0,0 l/m SW 14,8 km/h (3 Bft)
03.09.2009 06:00 15,8 C 96 % 1006,5 hPa 0,2 l/m S-SW 15,2 km/h (3 Bft)
03.09.2009 07:00 15,8 C 96 % 1006,2 hPa 0,0 l/m SW 5,6 km/h (1 Bft)
03.09.2009 08:00 16,3 C 97 % 1005,7 hPa 0,0 l/m S-SW 9,5 km/h (2 Bft)
03.09.2009 09:00 17,9 C 94 % 1005,4 hPa 0,0 l/m S-SW 18,1 km/h (3 Bft)
03.09.2009 10:00 20,1 C 85 % 1005,4 hPa 0,0 l/m SW 20,6 km/h (4 Bft)
03.09.2009 11:00 19,6 C 82 % 1005,7 hPa 0,0 l/m W-SW 21,6 km/h (4 Bft)
03.09.2009 12:00 18,6 C 82 % 1006,4 hPa 0,2 l/m W 39,6 km/h (6 Bft)
03.09.2009 13:00 19,2 C 80 % 1006,6 hPa 0,2 l/m W-SW 36,3 km/h (5 Bft)
03.09.2009 14:00 18,3 C 84 % 1006,7 hPa 0,0 l/m W 28,3 km/h (4 Bft)
03.09.2009 15:00 19,1 C 76 % 1006,5 hPa 0,0 l/m W-SW 29,0 km/h (5 Bft)
03.09.2009 16:00 18,4 C 73 % 1006,6 hPa 0,0 l/m W-SW 25,7 km/h (4 Bft)
03.09.2009 17:00 19,4 C 68 % 1006,8 hPa 0,0 l/m W 26,3 km/h (4 Bft)
03.09.2009 18:00 19,4 C 65 % 1007,2 hPa 0,0 l/m W 21,6 km/h (4 Bft)
03.09.2009 19:00 17,8 C 70 % 1007,8 hPa 0,2 l/m W 17,0 km/h (3 Bft)
03.09.2009 20:00 16,9 C 71 % 1008,8 hPa 0,0 l/m W-SW 16,5 km/h (3 Bft)
03.09.2009 21:00 16,1 C 68 % 1009,2 hPa 0,0 l/m SW 13,9 km/h (3 Bft)
03.09.2009 22:00 15,2 C 77 % 1009,3 hPa 0,0 l/m SW 6,4 km/h (2 Bft)
03.09.2009 23:00 14,5 C 82 % 1009,2 hPa 0,0 l/m W-SW 8,0 km/h (2 Bft)
04.09.2009 00:00 14,2 C 86 % 1009,0 hPa 0,0 l/m SW 6,0 km/h (2 Bft)
04.09.2009 01:00 14,0 C 87 % 1008,7 hPa 0,0 l/m SW 7,5 km/h (2 Bft)
04.09.2009 02:00 14,1 C 88 % 1008,5 hPa 0,0 l/m SW 8,4 km/h (2 Bft)
04.09.2009 03:00 13,9 C 89 % 1008,3 hPa 0,0 l/m SW 7,4 km/h (2 Bft)
04.09.2009 04:00 14,1 C 89 % 1007,9 hPa 0,0 l/m SW 7,3 km/h (2 Bft)
04.09.2009 05:00 14,3 C 85 % 1008,1 hPa 0,0 l/m W-SW 7,8 km/h (2 Bft)
04.09.2009 06:00 14,3 C 81 % 1008,1 hPa 0,0 l/m W-SW 13,4 km/h (3 Bft)
04.09.2009 07:00 14,0 C 84 % 1008,4 hPa 0,2 l/m W-SW 8,8 km/h (2 Bft)
04.09.2009 08:00 13,5 C 92 % 1008,5 hPa 0,2 l/m SW 9,5 km/h (2 Bft)
04.09.2009 09:00 13,8 C 92 % 1008,5 hPa 0,0 l/m S-SW 19,3 km/h (3 Bft)
04.09.2009 10:00 14,7 C 86 % 1007,9 hPa 0,0 l/m SW 20,6 km/h (4 Bft)
04.09.2009 11:00 15,0 C 85 % 1007,3 hPa 0,0 l/m SW 15,0 km/h (3 Bft)
04.09.2009 12:00 15,3 C 83 % 1006,8 hPa 0,0 l/m S-SW 14,0 km/h (3 Bft)
04.09.2009 13:00 15,7 C 81 % 1006,9 hPa 0,0 l/m SW 15,8 km/h (3 Bft)
04.09.2009 14:00 15,1 C 87 % 1007,1 hPa 1,4 l/m W-SW 16,0 km/h (3 Bft)
04.09.2009 15:00 14,4 C 92 % 1006,3 hPa 1,2 l/m SW 17,3 km/h (3 Bft)
04.09.2009 16:00 15,1 C 93 % 1006,1 hPa 0,2 l/m W-SW 22,9 km/h (4 Bft)
04.09.2009 17:00 15,2 C 85 % 1007,3 hPa 0,0 l/m W 34,3 km/h (5 Bft)
04.09.2009 18:00 14,9 C 78 % 1008,5 hPa 0,0 l/m W-NW 27,9 km/h (4 Bft)
04.09.2009 19:00 14,0 C 74 % 1009,9 hPa 0,0 l/m W 27,4 km/h (4 Bft)
04.09.2009 20:00 13,1 C 83 % 1011,7 hPa 2,0 l/m W 18,0 km/h (3 Bft)
04.09.2009 21:00 11,4 C 83 % 1013,5 hPa 0,0 l/m W 20,1 km/h (4 Bft)
04.09.2009 22:00 10,7 C 84 % 1015,3 hPa 0,0 l/m W-SW 12,1 km/h (2 Bft)
04.09.2009 23:00 10,6 C 84 % 1017,1 hPa 0,0 l/m W-SW 16,8 km/h (3 Bft)
05.09.2009 00:00 10,4 C 81 % 1018,1 hPa 0,0 l/m W 20,2 km/h (4 Bft)
05.09.2009 01:00 9,7 C 84 % 1019,1 hPa 0,0 l/m SW 21,2 km/h (4 Bft)
05.09.2009 02:00 9,2 C 89 % 1019,5 hPa 0,0 l/m W-SW 21,0 km/h (4 Bft)
05.09.2009 03:00 9,3 C 89 % 1019,6 hPa 0,0 l/m SW 22,2 km/h (4 Bft)
05.09.2009 04:00 9,2 C 88 % 1019,7 hPa 0,0 l/m W 18,2 km/h (3 Bft)
05.09.2009 05:00 8,7 C 89 % 1020,0 hPa 0,0 l/m SW 11,8 km/h (2 Bft)
05.09.2009 06:00 7,9 C 90 % 1020,7 hPa 0,0 l/m SW 8,7 km/h (2 Bft)
05.09.2009 07:00 7,4 C 94 % 1021,3 hPa 0,0 l/m SW 10,5 km/h (2 Bft)
05.09.2009 08:00 9,1 C 93 % 1021,5 hPa 0,0 l/m SW 15,4 km/h (3 Bft)
05.09.2009 09:00 11,3 C 81 % 1022,0 hPa 0,0 l/m W-SW 21,3 km/h (4 Bft)
05.09.2009 10:00 13,2 C 71 % 1022,2 hPa 0,0 l/m W 21,4 km/h (4 Bft)
05.09.2009 11:00 14,0 C 64 % 1022,3 hPa 0,0 l/m W-SW 21,0 km/h (4 Bft)
05.09.2009 12:00 15,3 C 55 % 1022,3 hPa 0,0 l/m W-SW 22,9 km/h (4 Bft)
05.09.2009 13:00 15,0 C 56 % 1022,3 hPa 0,0 l/m W 20,2 km/h (4 Bft)
05.09.2009 14:00 15,2 C 55 % 1022,3 hPa 0,0 l/m W 20,5 km/h (4 Bft)
05.09.2009 15:00 15,8 C 55 % 1022,0 hPa 0,0 l/m SW 16,8 km/h (3 Bft)
05.09.2009 16:00 16,5 C 51 % 1021,7 hPa 0,0 l/m W 20,0 km/h (4 Bft)
05.09.2009 17:00 15,7 C 54 % 1021,8 hPa 0,0 l/m W 13,8 km/h (3 Bft)
05.09.2009 18:00 15,3 C 57 % 1022,1 hPa 0,0 l/m W-NW 10,3 km/h (2 Bft)
05.09.2009 19:00 13,8 C 66 % 1022,7 hPa 0,0 l/m W-SW 6,8 km/h (2 Bft)
05.09.2009 20:00 13,1 C 72 % 1023,5 hPa 0,0 l/m W 2,9 km/h (1 Bft)
05.09.2009 21:00 11,8 C 79 % 1024,1 hPa 0,0 l/m N 2,7 km/h (1 Bft)
05.09.2009 22:00 11,1 C 82 % 1024,6 hPa 0,0 l/m N 0,8 km/h (0 Bft)
05.09.2009 23:00 10,3 C 84 % 1024,9 hPa 0,0 l/m N 0,9 km/h (0 Bft)
06.09.2009 00:00 9,7 C 89 % 1025,1 hPa 0,0 l/m N 0,4 km/h (0 Bft)
06.09.2009 01:00 9,7 C 88 % 1025,2 hPa 0,0 l/m N 0,9 km/h (0 Bft)
06.09.2009 02:00 10,0 C 88 % 1025,1 hPa 0,0 l/m S-SW 2,8 km/h (1 Bft)
06.09.2009 03:00 9,7 C 90 % 1025,1 hPa 0,0 l/m S-SW 1,2 km/h (1 Bft)
06.09.2009 04:00 9,3 C 89 % 1025,0 hPa 0,0 l/m N 0,5 km/h (0 Bft)
06.09.2009 05:00 8,5 C 89 % 1025,0 hPa 0,0 l/m N 0,0 km/h (0 Bft)
06.09.2009 06:00 7,9 C 91 % 1025,2 hPa 0,0 l/m N 0,1 km/h (0 Bft)
06.09.2009 07:00 7,5 C 93 % 1025,6 hPa 0,0 l/m N 0,0 km/h (0 Bft)
06.09.2009 08:00 9,2 C 92 % 1026,0 hPa 0,0 l/m S-SW 1,1 km/h (0 Bft)
06.09.2009 09:00 11,7 C 84 % 1026,0 hPa 0,0 l/m S 5,2 km/h (1 Bft)
06.09.2009 10:00 14,1 C 73 % 1026,0 hPa 0,0 l/m S-SW 8,3 km/h (2 Bft)
06.09.2009 11:00 15,5 C 65 % 1025,8 hPa 0,0 l/m S 10,3 km/h (2 Bft)
06.09.2009 12:00 16,6 C 57 % 1025,6 hPa 0,0 l/m S-SW 9,7 km/h (2 Bft)
06.09.2009 13:00 16,5 C 58 % 1025,3 hPa 0,0 l/m NW 6,5 km/h (2 Bft)
06.09.2009 14:00 17,6 C 54 % 1024,9 hPa 0,0 l/m SW 7,9 km/h (2 Bft)
06.09.2009 15:00 17,1 C 53 % 1024,4 hPa 0,0 l/m SW 6,0 km/h (2 Bft)
06.09.2009 16:00 18,0 C 50 % 1023,7 hPa 0,0 l/m S-SO 5,7 km/h (1 Bft)
06.09.2009 17:00 18,3 C 49 % 1023,4 hPa 0,0 l/m S-SO 4,8 km/h (1 Bft)
06.09.2009 18:00 17,3 C 55 % 1023,3 hPa 0,0 l/m N-NO 2,0 km/h (1 Bft)
06.09.2009 19:00 14,6 C 74 % 1023,2 hPa 0,0 l/m N 1,9 km/h (1 Bft)
06.09.2009 20:00 12,4 C 80 % 1023,4 hPa 0,0 l/m N 0,4 km/h (0 Bft)
06.09.2009 21:00 11,3 C 85 % 1023,5 hPa 0,0 l/m N 0,0 km/h (0 Bft)
06.09.2009 22:00 10,6 C 87 % 1023,3 hPa 0,0 l/m N 0,4 km/h (0 Bft)
06.09.2009 23:00 10,0 C 88 % 1023,2 hPa 0,0 l/m N 0,4 km/h (0 Bft)
Min-Datum _ 05.09.09 01.09.09 03.09.09 - - 31.08.09
_ Min-Zeit 07:05 16:45 09:10 - - 00:00
Minimum _ 7,3 C 27 % 1005,2 hPa - - 0,0 km/h (0 Bft)
Max-Datum _ 01.09.09 03.09.09 06.09.09 03.09.09 - 03.09.09
_ Max-Zeit 16:15 04:15 09:15 04:10 - 12:10
Maximum _ 30,1 C 97 % 1026,1 hPa 5,8 l/m - 48,3 km/h
SW (6 Bft)
Durchschnitt _ 15,9 C 77 % 1015,3 hPa #19,4 l/m SW 10,1 km/h (2 Bft)